Time;durP1;ratioP1;P1;durP2;ratioP2;P2;SDS_P1;SDS_P2;PMS_P1;PMS_P2;Temp;Humidity;BMP_temperature;BMP_pressure;BME280_temperature;BME280_humidity;BME280_pressure;Samples;Min_cycle;Max_cycle;Signal;HPM_P1;HPM_P2
2021/07/09 00:01:14;;;;;;;;;5.75;4.25;;;;;18.84;58.98;101535.97;4975913;28;45269;-61
2021/07/09 00:03:39;;;;;;;;;6.50;6.00;;;;;18.82;58.96;101537.13;4975729;28;45275;-60
2021/07/09 00:06:05;;;;;;;;;5.50;4.25;;;;;18.78;59.17;101531.31;4975695;28;45422;-60
2021/07/09 00:08:31;;;;;;;;;7.25;6.50;;;;;18.77;59.19;101537.63;4975870;28;45230;-60
2021/07/09 00:10:56;;;;;;;;;7.75;6.00;;;;;18.77;59.38;101534.97;4975712;28;45224;-61
2021/07/09 00:13:21;;;;;;;;;5.00;5.00;;;;;18.77;59.31;101534.97;4974564;28;74469;-60
2021/07/09 00:15:47;;;;;;;;;7.25;5.00;;;;;18.79;59.36;101540.16;4975518;28;45252;-60
2021/07/09 00:18:12;;;;;;;;;6.00;6.00;;;;;18.80;59.31;101531.16;4975635;28;45520;-60
2021/07/09 00:20:38;;;;;;;;;9.50;6.75;;;;;18.79;59.16;101532.16;4975362;28;45352;-60
2021/07/09 00:23:03;;;;;;;;;7.00;7.00;;;;;18.77;59.60;101534.16;4974416;28;73472;-60
2021/07/09 00:25:29;;;;;;;;;7.00;5.75;;;;;18.71;59.48;101530.31;4975512;28;45301;-60
2021/07/09 00:27:54;;;;;;;;;5.00;4.75;;;;;18.66;59.54;101529.97;4974546;28;69766;-60
2021/07/09 00:30:20;;;;;;;;;8.00;4.50;;;;;18.62;59.74;101532.16;4974837;28;63354;-59
2021/07/09 00:32:45;;;;;;;;;5.00;5.00;;;;;18.60;59.86;101531.47;4974392;28;72321;-60
2021/07/09 00:35:10;;;;;;;;;4.25;4.00;;;;;18.60;60.07;101535.97;4974503;28;66799;-60
2021/07/09 00:37:36;;;;;;;;;7.00;4.75;;;;;18.59;60.05;101528.97;4975450;28;45385;-60
2021/07/09 00:40:04;;;;;;;;;13.75;6.75;;;;;18.57;60.16;101530.97;4974339;28;68287;-60
2021/07/09 00:42:29;;;;;;;;;6.25;5.00;;;;;18.54;60.30;101529.47;4975097;28;45374;-60
2021/07/09 00:44:55;;;;;;;;;5.25;5.00;;;;;18.53;60.32;101528.66;4974404;28;69568;-60
2021/07/09 00:47:21;;;;;;;;;6.00;4.00;;;;;18.53;60.62;101526.00;4974567;28;62569;-60
2021/07/09 00:49:48;;;;;;;;;5.00;5.00;;;;;18.53;60.76;101531.31;4975338;28;45165;-60
2021/07/09 00:52:14;;;;;;;;;5.50;5.50;;;;;18.52;60.58;101527.00;4975122;28;45375;-60
2021/07/09 00:54:40;;;;;;;;;7.25;5.50;;;;;18.54;60.73;101530.31;4975121;28;47663;-60
2021/07/09 00:57:06;;;;;;;;;6.50;5.50;;;;;18.57;60.92;101522.97;4974138;28;69371;-61
2021/07/09 00:59:32;;;;;;;;;9.50;7.25;;;;;18.57;60.65;101523.81;4974096;28;45501;-60
2021/07/09 01:01:59;;;;;;;;;8.00;6.25;;;;;18.59;60.40;101527.16;4972787;28;72027;-60
2021/07/09 01:04:24;;;;;;;;;10.00;7.00;;;;;18.61;60.15;101530.47;4975125;28;46056;-61
2021/07/09 01:06:50;;;;;;;;;9.50;8.25;;;;;18.64;59.96;101526.66;4975085;28;45375;-61
2021/07/09 01:09:15;;;;;;;;;7.25;7.00;;;;;18.66;59.96;101527.31;4975045;28;45299;-60
2021/07/09 01:11:41;;;;;;;;;6.75;6.00;;;;;18.69;59.62;101526.97;4974787;28;45537;-60
2021/07/09 01:14:08;;;;;;;;;8.75;6.00;;;;;18.72;59.47;101531.16;4974586;28;54843;-60
2021/07/09 01:16:34;;;;;;;;;6.50;6.50;;;;;18.74;59.30;101535.31;4975089;28;45382;-60
2021/07/09 01:18:59;;;;;;;;;5.75;5.75;;;;;18.75;59.46;101538.81;4957600;28;45545;-60
2021/07/09 01:21:25;;;;;;;;;6.25;6.00;;;;;18.75;59.17;101542.28;4956206;28;71863;-60
2021/07/09 01:23:57;;;;;;;;;6.75;5.25;;;;;18.77;59.26;101544.81;4973957;28;67792;-60
2021/07/09 01:26:22;;;;;;;;;6.00;6.00;;;;;18.78;59.92;101552.63;4975021;28;45263;-60
2021/07/09 01:28:47;;;;;;;;;5.25;5.25;;;;;18.80;59.74;101552.47;4972606;28;70330;-60
2021/07/09 01:31:13;;;;;;;;;7.00;5.75;;;;;18.76;59.92;101546.63;4974176;28;56799;-60
2021/07/09 01:33:38;;;;;;;;;4.75;4.25;;;;;18.77;59.73;101545.63;4973773;28;68023;-60
2021/07/09 01:36:04;;;;;;;;;4.00;4.00;;;;;18.77;59.93;101550.13;4974779;28;45638;-60
2021/07/09 01:38:29;;;;;;;;;5.00;5.00;;;;;18.76;59.81;101549.28;4974561;28;45510;-60
2021/07/09 01:40:55;;;;;;;;;5.75;5.75;;;;;18.74;60.15;101545.97;4973883;28;59669;-60
2021/07/09 01:43:20;;;;;;;;;5.50;5.00;;;;;18.73;59.76;101544.28;4974520;28;45465;-61
2021/07/09 01:45:46;;;;;;;;;7.50;5.50;;;;;18.74;59.50;101547.81;4974652;28;45431;-61
2021/07/09 01:48:11;;;;;;;;;6.75;6.75;;;;;18.73;59.58;101544.28;4974566;28;45351;-61
2021/07/09 01:50:37;;;;;;;;;5.50;5.50;;;;;18.73;59.92;101543.47;4974294;28;45414;-60
2021/07/09 01:53:02;;;;;;;;;7.25;6.00;;;;;18.69;60.03;101538.47;4974382;28;45537;-60
2021/07/09 01:55:27;;;;;;;;;5.00;5.00;;;;;18.65;60.28;101538.97;4974509;28;45414;-60
2021/07/09 01:57:53;;;;;;;;;6.00;6.00;;;;;18.61;60.54;101538.47;4974376;28;45530;-60
2021/07/09 02:00:20;;;;;;;;;7.00;5.75;;;;;18.56;60.70;101540.78;4974156;28;45923;-60
2021/07/09 02:02:45;;;;;;;;;5.00;5.00;;;;;18.54;60.58;101543.63;4975790;28;45364;-60
2021/07/09 02:05:13;;;;;;;;;4.75;4.25;;;;;18.54;60.53;101540.97;4975114;27;45597;-60
2021/07/09 02:07:39;;;;;;;;;5.75;4.50;;;;;18.53;60.73;101533.13;4974408;28;45250;-60
2021/07/09 02:10:06;;;;;;;;;6.00;6.00;;;;;18.52;60.67;101534.13;4973245;28;45269;-60
2021/07/09 02:12:31;;;;;;;;;6.50;5.00;;;;;18.48;60.66;101530.13;4972893;28;45814;-60
2021/07/09 02:14:59;;;;;;;;;5.50;5.50;;;;;18.46;60.52;101535.63;4973607;28;58658;-60
2021/07/09 02:17:24;;;;;;;;;6.50;5.50;;;;;18.43;60.41;101533.28;4973932;28;45730;-61
2021/07/09 02:19:50;;;;;;;;;4.50;4.50;;;;;18.39;60.56;101529.28;4973409;28;56664;-60
2021/07/09 02:22:15;;;;;;;;;6.00;4.00;;;;;18.37;60.74;101528.63;4974000;28;45375;-61
2021/07/09 02:24:45;;;;;;;;;5.75;5.75;;;;;18.36;61.00;101521.63;4973830;28;45445;-60
2021/07/09 02:27:10;;;;;;;;;7.75;5.25;;;;;18.37;60.54;101521.44;4974095;28;45330;-59
2021/07/09 02:29:36;;;;;;;;;6.50;5.25;;;;;18.36;60.57;101526.94;4972925;28;73899;-60
2021/07/09 02:32:03;;;;;;;;;6.00;5.25;;;;;18.32;60.87;101523.78;4972850;28;70746;-60
2021/07/09 02:34:29;;;;;;;;;7.00;6.00;;;;;18.26;60.89;101528.91;4973852;28;45409;-60
2021/07/09 02:36:55;;;;;;;;;7.00;5.75;;;;;18.23;61.39;101525.59;4974010;28;45391;-61
2021/07/09 02:39:21;;;;;;;;;6.25;6.25;;;;;18.23;61.35;101522.94;4973699;28;47260;-60
2021/07/09 02:41:46;;;;;;;;;6.00;5.75;;;;;18.21;61.27;101519.59;4973536;28;45185;-61
2021/07/09 02:44:11;;;;;;;;;8.50;5.75;;;;;18.21;60.94;101519.59;4975809;27;45241;-60
2021/07/09 02:46:37;;;;;;;;;7.00;6.25;;;;;18.21;60.99;101521.44;4973876;28;45600;-60
2021/07/09 02:49:03;;;;;;;;;10.50;8.00;;;;;18.20;61.14;101522.44;4972619;28;73707;-60
2021/07/09 02:51:28;;;;;;;;;5.75;5.75;;;;;18.17;60.95;101523.56;4973503;28;46154;-60
2021/07/09 02:53:53;;;;;;;;;5.00;5.00;;;;;18.14;61.16;101512.44;4973701;28;45422;-60
2021/07/09 02:56:19;;;;;;;;;7.75;6.25;;;;;18.11;61.12;101523.41;4973092;28;62105;-60
2021/07/09 02:58:44;;;;;;;;;7.50;7.50;;;;;18.07;61.45;101504.25;4972432;28;73731;-60
2021/07/09 03:01:09;;;;;;;;;7.75;6.00;;;;;18.05;61.55;101515.06;4972592;28;66229;-61
2021/07/09 03:03:35;;;;;;;;;6.25;6.00;;;;;18.04;61.40;101507.25;4972928;28;65413;-60
2021/07/09 03:06:00;;;;;;;;;5.50;5.25;;;;;18.01;61.60;101496.94;4973377;28;45451;-61
2021/07/09 03:08:26;;;;;;;;;7.00;7.00;;;;;18.00;61.34;101504.09;4955814;28;47026;-60
2021/07/09 03:10:51;;;;;;;;;7.00;7.00;;;;;18.00;61.52;101505.94;4973456;28;45542;-60
2021/07/09 03:13:17;;;;;;;;;9.00;7.00;;;;;17.97;61.70;101507.03;4972559;28;65383;-59
2021/07/09 03:15:42;;;;;;;;;5.50;5.25;;;;;17.99;61.79;101513.06;4972485;28;67647;-61
2021/07/09 03:18:07;;;;;;;;;7.00;6.00;;;;;17.99;61.73;101506.88;4972934;28;45874;-60
2021/07/09 03:20:33;;;;;;;;;7.50;7.00;;;;;18.00;61.85;101511.25;4972714;28;52075;-60
2021/07/09 03:22:59;;;;;;;;;7.00;7.00;;;;;18.01;61.77;101511.06;4975882;28;45361;-60
2021/07/09 03:25:24;;;;;;;;;6.00;5.50;;;;;18.01;61.74;101504.94;4976406;28;45519;-60
2021/07/09 03:27:50;;;;;;;;;7.25;6.75;;;;;18.01;61.78;101496.94;4975940;28;46895;-60
2021/07/09 03:30:15;;;;;;;;;9.00;7.50;;;;;18.00;61.86;101496.09;4975282;28;68938;-60
2021/07/09 03:32:40;;;;;;;;;8.00;7.00;;;;;18.00;61.68;101498.75;4976131;28;45223;-61
2021/07/09 03:35:07;;;;;;;;;7.00;6.00;;;;;18.01;61.88;101499.63;4976159;28;45326;-60
2021/07/09 03:37:32;;;;;;;;;6.75;6.75;;;;;17.99;62.20;101505.06;4976060;28;45217;-60
2021/07/09 03:39:58;;;;;;;;;8.25;7.25;;;;;17.98;62.32;101505.22;4975674;28;51532;-60
2021/07/09 03:42:23;;;;;;;;;7.25;7.00;;;;;17.97;62.19;101500.91;4975197;28;68313;-60
2021/07/09 03:44:48;;;;;;;;;9.00;8.25;;;;;17.96;62.20;101497.38;4975170;28;70444;-60
2021/07/09 03:47:14;;;;;;;;;8.00;8.00;;;;;17.97;61.97;101501.72;4975178;28;65484;-60
2021/07/09 03:49:40;;;;;;;;;7.50;7.00;;;;;17.98;62.24;101500.72;4975005;28;68505;-60
2021/07/09 03:52:06;;;;;;;;;11.25;8.00;;;;;17.99;61.90;101504.22;4976265;28;45380;-61
2021/07/09 03:54:32;;;;;;;;;10.75;9.00;;;;;17.98;62.04;101507.88;4975956;28;45594;-60
2021/07/09 03:56:57;;;;;;;;;8.00;8.00;;;;;17.95;62.26;101509.03;4975921;28;46008;-60
2021/07/09 03:59:22;;;;;;;;;7.00;7.00;;;;;17.91;62.56;101497.03;4975167;28;68655;-60
2021/07/09 04:01:48;;;;;;;;;8.00;7.00;;;;;17.88;62.37;101498.22;4975152;28;64095;-60
2021/07/09 04:04:13;;;;;;;;;6.75;5.25;;;;;17.87;62.45;101506.31;4975127;28;59668;-60
2021/07/09 04:06:39;;;;;;;;;6.75;6.75;;;;;17.81;62.58;101502.50;4974551;28;75672;-60
2021/07/09 04:09:04;;;;;;;;;6.50;6.25;;;;;17.76;62.73;101504.78;4975700;28;45454;-60
2021/07/09 04:11:30;;;;;;;;;6.00;5.50;;;;;17.75;63.34;101503.13;4975014;28;64960;-60
2021/07/09 04:13:55;;;;;;;;;6.75;6.75;;;;;17.74;62.90;101518.25;4974869;28;63035;-60
2021/07/09 04:16:21;;;;;;;;;8.00;7.00;;;;;17.73;62.83;101510.44;4977563;28;45398;-60
2021/07/09 04:18:46;;;;;;;;;6.75;6.75;;;;;17.70;62.96;101516.06;4974687;28;70173;-60
2021/07/09 04:21:11;;;;;;;;;7.25;6.25;;;;;17.65;62.79;101509.41;4974518;28;63137;-60
2021/07/09 04:23:38;;;;;;;;;9.25;7.00;;;;;17.61;63.47;101516.03;4975326;28;45229;-59
2021/07/09 04:26:03;;;;;;;;;12.25;12.25;;;;;17.58;63.20;101513.69;4974621;28;69084;-60
2021/07/09 04:28:29;;;;;;;;;9.75;6.25;;;;;17.55;63.39;101516.66;4974600;28;66511;-60
2021/07/09 04:30:54;;;;;;;;;7.00;7.00;;;;;17.55;63.33;101516.66;4977377;27;60143;-60
2021/07/09 04:33:21;;;;;;;;;6.00;6.00;;;;;17.56;63.45;101520.16;4975217;28;45297;-59
2021/07/09 04:35:47;;;;;;;;;8.00;7.00;;;;;17.56;63.53;101525.47;4975467;28;46300;-60
2021/07/09 04:38:12;;;;;;;;;9.00;6.25;;;;;17.55;63.15;101523.81;4974560;28;65748;-60
2021/07/09 04:40:37;;;;;;;;;7.50;7.00;;;;;17.53;63.42;101523.13;4974467;28;62293;-59
2021/07/09 04:43:03;;;;;;;;;11.25;7.00;;;;;17.50;63.53;101519.78;4974483;28;63810;-60
2021/07/09 04:45:28;;;;;;;;;8.75;8.00;;;;;17.48;63.71;101523.63;4975109;28;45640;-59
2021/07/09 04:47:54;;;;;;;;;9.50;7.25;;;;;17.48;63.60;101529.75;4974515;28;65834;-59
2021/07/09 04:50:19;;;;;;;;;11.25;6.75;;;;;17.48;63.69;101518.28;4974534;28;61587;-59
2021/07/09 04:52:44;;;;;;;;;9.75;9.00;;;;;17.49;63.94;101519.94;4974446;28;65999;-60
2021/07/09 04:55:10;;;;;;;;;9.50;9.00;;;;;17.46;63.68;101507.81;4975125;28;46146;-60
2021/07/09 04:57:36;;;;;;;;;7.75;6.75;;;;;17.49;63.70;101517.28;4975123;28;45581;-60
2021/07/09 05:00:01;;;;;;;;;9.25;8.25;;;;;17.50;64.17;101518.94;4974765;28;51891;-59
2021/07/09 05:02:27;;;;;;;;;8.50;8.00;;;;;17.54;63.86;101516.81;4974988;28;45519;-60
2021/07/09 05:04:52;;;;;;;;;8.00;8.00;;;;;17.55;64.15;101521.16;4977090;28;45364;-61
2021/07/09 05:07:17;;;;;;;;;11.00;8.00;;;;;17.56;64.21;101520.97;4974946;28;45375;-60
2021/07/09 05:09:43;;;;;;;;;8.00;6.75;;;;;17.59;64.16;101530.47;4975346;28;45672;-61
2021/07/09 05:12:08;;;;;;;;;7.50;7.50;;;;;17.61;64.35;101529.31;4974370;28;62728;-61
2021/07/09 05:14:34;;;;;;;;;6.75;5.50;;;;;17.63;64.57;101529.16;4974214;28;66642;-60
2021/07/09 05:16:59;;;;;;;;;7.75;7.75;;;;;17.64;64.68;101534.31;4974143;28;70262;-61
2021/07/09 05:19:24;;;;;;;;;7.75;5.50;;;;;17.67;64.58;101537.63;4973268;28;52699;-61
2021/07/09 05:21:50;;;;;;;;;7.00;7.00;;;;;17.69;64.82;101530.34;4974639;28;45644;-60
2021/07/09 05:24:16;;;;;;;;;7.25;7.25;;;;;17.72;64.72;101535.34;4974763;28;46015;-60
2021/07/09 05:26:42;;;;;;;;;8.00;7.00;;;;;17.74;64.75;101533.38;4974835;28;45359;-61
2021/07/09 05:29:08;;;;;;;;;6.00;6.00;;;;;17.76;64.80;101532.19;4974876;28;45393;-60
2021/07/09 05:31:33;;;;;;;;;8.00;7.00;;;;;17.80;65.15;101544.19;4974770;28;45302;-61
2021/07/09 05:33:59;;;;;;;;;9.50;7.00;;;;;17.84;64.94;101533.22;4974510;28;45478;-60
2021/07/09 05:36:25;;;;;;;;;7.50;7.50;;;;;17.87;65.00;101531.09;4974754;28;45336;-60
2021/07/09 05:38:50;;;;;;;;;8.00;7.75;;;;;17.92;65.19;101535.94;4972827;28;61500;-60
2021/07/09 05:41:15;;;;;;;;;8.25;7.50;;;;;17.99;64.66;101538.78;4973556;28;70472;-60
2021/07/09 05:43:42;;;;;;;;;8.00;6.75;;;;;18.04;64.58;101539.16;4972937;28;61967;-60
2021/07/09 05:46:07;;;;;;;;;9.00;9.00;;;;;18.10;64.19;101538.50;4974107;28;45189;-60
2021/07/09 05:48:33;;;;;;;;;7.00;7.00;;;;;18.16;64.05;101543.19;4976234;27;45339;-60
2021/07/09 05:50:58;;;;;;;;;7.75;7.50;;;;;18.22;63.95;101550.53;4974566;28;45605;-60
2021/07/09 05:53:23;;;;;;;;;9.50;9.00;;;;;18.27;63.61;101543.88;4974282;28;45945;-60
2021/07/09 05:55:49;;;;;;;;;9.50;9.50;;;;;18.30;63.54;101541.72;4973339;28;72775;-60
2021/07/09 05:58:15;;;;;;;;;12.00;9.25;;;;;18.35;63.20;101546.56;4974588;28;45872;-60
2021/07/09 06:00:41;;;;;;;;;9.25;9.00;;;;;18.38;63.22;101540.94;4974038;28;55403;-59
2021/07/09 06:03:06;;;;;;;;;8.75;8.25;;;;;18.39;63.04;101548.72;4973998;28;46330;-60
2021/07/09 06:05:32;;;;;;;;;10.75;9.50;;;;;18.43;63.03;101543.09;4974221;28;45699;-60
2021/07/09 06:08:01;;;;;;;;;8.75;7.75;;;;;18.47;62.74;101541.75;4975770;28;60772;-60
2021/07/09 06:10:27;;;;;;;;;10.00;7.00;;;;;18.52;62.99;101547.44;4974267;28;45247;-60
2021/07/09 06:12:52;;;;;;;;;10.50;8.00;;;;;18.58;63.21;101552.09;4974010;28;46029;-59
2021/07/09 06:15:18;;;;;;;;;13.25;10.75;;;;;18.60;63.05;101554.59;4974070;28;45365;-60
2021/07/09 06:17:43;;;;;;;;;10.75;8.00;;;;;18.66;62.99;101548.59;4974349;28;45229;-60
2021/07/09 06:20:09;;;;;;;;;14.75;10.25;;;;;18.71;62.88;101556.94;4973013;28;64990;-60
2021/07/09 06:22:34;;;;;;;;;8.50;7.75;;;;;18.77;62.52;101558.13;4973931;28;46232;-60
2021/07/09 06:24:59;;;;;;;;;18.75;15.25;;;;;18.83;62.34;101554.78;4973385;28;65274;-60
2021/07/09 06:27:25;;;;;;;;;9.25;9.00;;;;;18.86;61.91;101554.44;4973208;28;63368;-60
2021/07/09 06:29:50;;;;;;;;;7.50;7.50;;;;;18.92;61.58;101558.28;4972886;28;70433;-60
2021/07/09 06:32:16;;;;;;;;;9.75;8.50;;;;;18.96;61.81;101554.31;4973804;28;45332;-61
2021/07/09 06:34:41;;;;;;;;;9.00;8.00;;;;;19.02;61.50;101553.66;4973060;28;69714;-59
2021/07/09 06:37:06;;;;;;;;;9.00;8.00;;;;;19.06;61.61;101557.66;4974092;28;45313;-60
2021/07/09 06:39:32;;;;;;;;;7.25;7.25;;;;;19.12;60.90;101559.63;4972856;28;70390;-60
2021/07/09 06:41:57;;;;;;;;;8.00;8.00;;;;;19.17;60.48;101561.81;4973716;28;45873;-60
2021/07/09 06:44:23;;;;;;;;;8.00;8.00;;;;;19.21;60.69;101560.47;4973863;28;45488;-60
2021/07/09 06:46:48;;;;;;;;;8.75;7.25;;;;;19.25;60.32;101560.94;4972954;28;66833;-60
2021/07/09 06:49:15;;;;;;;;;10.25;9.75;;;;;19.28;60.13;101561.47;4973697;28;45443;-59
2021/07/09 06:51:40;;;;;;;;;12.50;8.00;;;;;19.31;59.97;101562.13;4973696;28;45923;-60
2021/07/09 06:54:05;;;;;;;;;7.00;7.00;;;;;19.34;60.05;101557.28;4971398;28;68680;-60
2021/07/09 06:56:31;;;;;;;;;10.00;7.75;;;;;19.37;59.88;101556.94;4974947;28;66110;-60
2021/07/09 06:58:56;;;;;;;;;11.00;9.00;;;;;19.41;60.15;101568.94;4975745;28;66397;-60
2021/07/09 07:01:22;;;;;;;;;9.00;9.00;;;;;19.43;59.97;101571.41;4975601;28;69551;-60
2021/07/09 07:03:47;;;;;;;;;10.00;8.00;;;;;19.46;59.85;101564.94;4976446;28;45240;-60
2021/07/09 07:06:13;;;;;;;;;7.75;7.50;;;;;19.48;59.57;101570.94;4975807;28;61094;-59
2021/07/09 07:08:38;;;;;;;;;11.50;7.75;;;;;19.51;59.52;101573.25;4976224;28;45366;-60
2021/07/09 07:11:03;;;;;;;;;8.00;8.00;;;;;19.54;59.32;101572.91;4976412;27;64993;-60
2021/07/09 07:13:29;;;;;;;;;9.00;8.00;;;;;19.55;59.58;101578.06;4975195;28;66954;-60
2021/07/09 07:15:54;;;;;;;;;10.50;8.25;;;;;19.58;59.59;101574.25;4976263;28;45508;-60
2021/07/09 07:18:20;;;;;;;;;11.00;9.50;;;;;19.62;58.92;101569.38;4976558;28;45331;-60
2021/07/09 07:20:46;;;;;;;;;10.50;9.00;;;;;19.63;59.05;101571.88;4976138;28;45409;-60
2021/07/09 07:23:12;;;;;;;;;9.50;8.25;;;;;19.67;59.21;101569.72;4975983;28;45340;-60
2021/07/09 07:25:38;;;;;;;;;9.50;7.75;;;;;19.71;58.83;101571.03;4976508;28;45359;-60
2021/07/09 07:28:04;;;;;;;;;10.00;8.75;;;;;19.73;58.66;101571.69;4976234;28;45311;-60
2021/07/09 07:30:29;;;;;;;;;10.75;9.25;;;;;19.78;58.18;101573.84;4974838;28;45291;-59
2021/07/09 07:32:55;;;;;;;;;9.25;7.00;;;;;19.80;57.92;101577.16;4975978;28;50763;-60
2021/07/09 07:35:20;;;;;;;;;9.50;9.00;;;;;19.84;58.11;101574.00;4976336;28;45284;-59
2021/07/09 07:37:46;;;;;;;;;10.50;8.00;;;;;19.90;57.93;101579.66;4975948;28;45509;-60
2021/07/09 07:40:11;;;;;;;;;8.50;8.00;;;;;19.94;58.25;101579.16;5024330;28;71348;-60
2021/07/09 07:42:37;;;;;;;;;11.25;10.00;;;;;19.99;57.40;101579.47;5000607;28;45446;-59
2021/07/09 07:45:03;;;;;;;;;8.75;8.25;;;;;20.02;57.43;101576.44;4985237;27;68489;-60
2021/07/09 07:47:29;;;;;;;;;8.00;7.25;;;;;20.08;57.41;101571.44;4978016;28;45581;-59
2021/07/09 07:49:54;;;;;;;;;10.00;10.00;;;;;20.11;57.54;101573.75;4999389;27;46138;-60
2021/07/09 07:52:20;;;;;;;;;11.75;10.75;;;;;20.16;56.93;101576.69;4984854;28;70180;-60
2021/07/09 07:54:45;;;;;;;;;11.25;8.75;;;;;20.22;56.93;101569.84;4985745;28;69216;-59
2021/07/09 07:57:10;;;;;;;;;8.75;8.25;;;;;20.28;57.18;101569.97;4985836;28;70499;-60
2021/07/09 07:59:36;;;;;;;;;11.75;9.75;;;;;20.36;56.83;101570.94;4990315;28;69200;-59
2021/07/09 08:02:01;;;;;;;;;12.25;10.50;;;;;20.40;56.81;101566.91;4987510;28;69783;-60
2021/07/09 08:04:27;;;;;;;;;9.50;8.00;;;;;20.44;56.84;101566.38;4990656;28;45952;-60
2021/07/09 08:06:52;;;;;;;;;10.25;8.00;;;;;20.49;56.23;101560.53;4992208;27;45439;-61
2021/07/09 08:09:17;;;;;;;;;8.75;8.75;;;;;20.56;56.38;101566.81;4986437;28;66467;-61
2021/07/09 08:11:43;;;;;;;;;10.75;9.00;;;;;20.59;56.17;101563.78;4994457;28;50937;-60
2021/07/09 08:14:08;;;;;;;;;12.00;10.50;;;;;20.65;55.64;101564.09;4995036;28;45457;-58
2021/07/09 08:16:33;;;;;;;;;8.50;7.25;;;;;20.66;55.26;101565.75;5013904;28;61174;-60
2021/07/09 08:19:00;;;;;;;;;10.00;9.25;;;;;20.69;55.58;101560.03;5004560;27;68079;-60
2021/07/09 08:21:26;;;;;;;;;11.00;9.50;;;;;20.73;54.81;101558.66;5005791;28;45376;-60
2021/07/09 08:23:51;;;;;;;;;14.00;9.25;;;;;20.78;54.70;101560.84;5019465;28;45502;-59
2021/07/09 08:26:16;;;;;;;;;10.50;9.00;;;;;20.81;54.09;101563.97;5042835;28;45495;-60
2021/07/09 08:28:42;;;;;;;;;10.50;9.00;;;;;20.84;54.12;101552.94;5039421;28;72674;-60
2021/07/09 08:31:07;;;;;;;;;8.50;8.50;;;;;20.88;54.29;101554.25;5036617;27;45547;-61
2021/07/09 08:33:33;;;;;;;;;9.50;8.75;;;;;20.94;54.53;101551.88;5049338;27;45487;-60
2021/07/09 08:35:58;;;;;;;;;9.00;8.00;;;;;20.95;54.60;101553.53;5053920;27;45152;-60
2021/07/09 08:38:23;;;;;;;;;8.00;8.00;;;;;20.99;53.99;101542.28;5042476;27;45393;-60
2021/07/09 08:40:49;;;;;;;;;8.75;7.75;;;;;21.03;53.71;101551.59;4993054;28;45341;-60
2021/07/09 08:43:14;;;;;;;;;12.75;9.00;;;;;21.06;53.85;101547.75;5025716;28;66373;-60
2021/07/09 08:45:40;;;;;;;;;9.75;8.00;;;;;21.10;52.97;101545.53;5029814;27;69445;-58
2021/07/09 08:48:06;;;;;;;;;8.25;6.00;;;;;21.13;53.23;101543.34;5018412;28;45457;-58
2021/07/09 08:50:32;;;;;;;;;13.25;9.00;;;;;21.18;53.10;101545.47;5014162;28;47125;-61
2021/07/09 08:52:57;;;;;;;;;14.25;12.50;;;;;21.23;53.01;101550.25;5040533;28;45249;-58
2021/07/09 08:55:22;;;;;;;;;9.75;8.50;;;;;21.28;52.92;101542.53;5027506;27;45707;-61
2021/07/09 08:57:48;;;;;;;;;10.50;10.50;;;;;21.31;52.79;101543.00;5044882;27;72495;-59
2021/07/09 09:00:26;;;;;;;;;9.00;8.00;;;;;21.35;52.98;101540.78;5008801;27;45520;-60
2021/07/09 09:02:52;;;;;;;;;10.75;9.25;;;;;21.39;52.81;101539.41;5005761;28;45439;-60
2021/07/09 09:05:21;;;;;;;;;12.75;12.00;;;;;21.43;52.65;101529.19;5006132;27;45320;-60
2021/07/09 09:08:05;;;;;;;;;12.25;11.00;;;;;21.46;52.96;101539.53;5012941;28;45527;-60
2021/07/09 09:10:41;;;;;;;;;14.25;10.75;;;;;21.50;52.96;101541.63;5003832;28;45731;-60
2021/07/09 09:13:16;;;;;;;;;11.75;11.25;;;;;21.50;52.68;101541.63;5019573;28;45529;-60
2021/07/09 09:15:56;;;;;;;;;12.00;10.00;;;;;21.52;53.01;101537.94;5024323;28;45579;-61
2021/07/09 09:18:25;;;;;;;;;13.00;13.00;;;;;21.56;53.12;101536.56;5023019;28;55233;-61
2021/07/09 09:21:07;;;;;;;;;11.50;11.25;;;;;21.59;53.13;101544.22;5013503;28;45505;-60
2021/07/09 09:23:35;;;;;;;;;42.00;33.25;;;;;21.62;52.23;101543.88;5033674;27;45486;-60
2021/07/09 09:26:00;;;;;;;;;15.50;13.00;;;;;21.64;52.34;101537.31;5027974;27;45799;-60
2021/07/09 09:28:26;;;;;;;;;15.00;11.75;;;;;21.70;52.18;101546.47;5045117;27;45885;-61
2021/07/09 09:30:53;;;;;;;;;10.00;8.50;;;;;21.74;52.71;101547.72;5036095;27;45503;-60
2021/07/09 09:33:19;;;;;;;;;12.50;10.50;;;;;21.78;52.18;101549.00;5056919;28;45536;-60
2021/07/09 09:35:54;;;;;;;;;15.25;14.00;;;;;21.81;52.28;101547.81;5038835;28;45518;-60
2021/07/09 09:38:24;;;;;;;;;12.00;12.00;;;;;21.86;51.90;101539.22;5067874;28;45408;-60
2021/07/09 09:40:50;;;;;;;;;13.00;13.00;;;;;21.88;52.65;101543.41;5057500;28;45252;-60
2021/07/09 09:43:21;;;;;;;;;14.50;11.00;;;;;21.90;52.27;101543.19;5050368;28;45543;-59
2021/07/09 09:46:16;;;;;;;;;13.00;11.75;;;;;21.91;51.22;101544.84;5038792;28;45271;-60
2021/07/09 09:48:45;;;;;;;;;13.50;13.00;;;;;21.94;52.54;101547.16;4978721;28;45593;-60
2021/07/09 09:51:30;;;;;;;;;18.50;14.50;;;;;21.97;51.61;101540.63;4982030;28;46002;-58
2021/07/09 09:54:00;;;;;;;;;15.25;12.75;;;;;21.98;51.56;101540.41;4980862;28;45296;-60
2021/07/09 09:56:46;;;;;;;;;16.00;13.25;;;;;22.00;50.93;101541.06;5000506;28;45447;-60
2021/07/09 09:59:20;;;;;;;;;13.25;13.25;;;;;21.98;50.91;101537.75;4990170;28;46095;-60
2021/07/09 10:02:07;;;;;;;;;11.75;11.75;;;;;22.00;51.14;101537.53;4989592;28;45266;-60
2021/07/09 10:04:33;;;;;;;;;13.00;10.75;;;;;22.01;50.42;101532.00;4993488;28;45366;-60
2021/07/09 10:06:59;;;;;;;;;11.00;9.75;;;;;22.03;51.19;101529.97;5001664;28;45445;-59
2021/07/09 10:09:25;;;;;;;;;11.25;10.75;;;;;22.04;51.72;101526.28;5001768;27;45996;-60
2021/07/09 10:11:50;;;;;;;;;12.75;12.00;;;;;22.04;50.84;101520.94;4996708;28;45966;-60
2021/07/09 10:14:17;;;;;;;;;11.00;10.00;;;;;22.06;50.89;101521.59;5009743;28;45333;-60
2021/07/09 10:16:45;;;;;;;;;9.75;8.75;;;;;22.06;50.88;101523.41;5011775;28;45545;-60
2021/07/09 10:19:14;;;;;;;;;11.50;10.00;;;;;22.09;51.34;101523.03;5007157;28;52794;-59
2021/07/09 10:21:39;;;;;;;;;10.50;9.00;;;;;22.14;50.62;101525.16;5013319;28;45977;-61
2021/07/09 10:24:08;;;;;;;;;10.00;9.00;;;;;22.18;49.50;101524.59;5026377;27;67427;-61
2021/07/09 10:26:34;;;;;;;;;7.25;7.25;;;;;22.23;50.34;101522.16;5008366;28;45549;-60
2021/07/09 10:29:13;;;;;;;;;9.25;7.00;;;;;22.29;49.71;101517.91;5038510;27;46155;-61
2021/07/09 10:31:40;;;;;;;;;10.00;8.25;;;;;22.35;49.20;101527.84;4997531;28;45952;-60
2021/07/09 10:34:27;;;;;;;;;9.00;8.25;;;;;22.39;48.92;101518.41;5004991;28;45480;-60
2021/07/09 10:37:01;;;;;;;;;6.75;6.00;;;;;22.45;48.98;101524.06;5010667;28;45319;-60
2021/07/09 10:39:37;;;;;;;;;16.50;15.00;;;;;22.47;48.71;101522.03;5000434;28;45417;-60
2021/07/09 10:42:22;;;;;;;;;7.00;5.25;;;;;22.50;48.05;101521.66;4979527;28;45325;-61
2021/07/09 10:45:12;;;;;;;;;7.00;6.00;;;;;22.53;47.93;101521.25;5000955;28;45295;-60
2021/07/09 10:47:53;;;;;;;;;8.25;6.75;;;;;22.56;48.32;101518.19;4985068;28;45435;-60
2021/07/09 10:50:37;;;;;;;;;9.50;7.50;;;;;22.60;47.75;101508.75;4990038;28;46117;-60
2021/07/09 10:53:11;;;;;;;;;8.50;7.25;;;;;22.63;48.21;101513.75;4986829;28;45397;-60
2021/07/09 10:55:44;;;;;;;;;6.25;6.25;;;;;22.70;48.43;101511.09;5012441;28;45585;-60
2021/07/09 10:58:10;;;;;;;;;6.50;6.50;;;;;22.77;47.27;101508.50;5000758;28;45419;-60
2021/07/09 11:00:55;;;;;;;;;8.50;7.00;;;;;22.82;48.12;101506.88;4999458;28;46186;-60
2021/07/09 11:03:26;;;;;;;;;9.75;7.75;;;;;22.90;47.93;101513.13;5006359;28;45659;-61
2021/07/09 11:06:01;;;;;;;;;8.00;7.00;;;;;22.96;47.30;101507.81;5001362;28;45229;-60
2021/07/09 11:08:29;;;;;;;;;11.50;9.00;;;;;23.03;47.29;101504.34;5008161;27;45252;-60
2021/07/09 11:11:01;;;;;;;;;8.00;6.50;;;;;23.10;47.20;101500.69;4998590;28;45547;-61
2021/07/09 11:13:42;;;;;;;;;10.00;8.50;;;;;23.19;46.60;101505.88;5005786;28;45323;-60
2021/07/09 11:16:27;;;;;;;;;9.00;8.00;;;;;23.24;46.79;101493.59;4995330;28;45420;-60
2021/07/09 11:18:59;;;;;;;;;7.00;7.00;;;;;23.31;46.39;101493.63;5008213;28;45289;-61
2021/07/09 11:21:30;;;;;;;;;7.25;7.00;;;;;23.38;46.51;101488.28;5010813;28;45391;-60